Time;durP1;ratioP1;P1;durP2;ratioP2;P2;SDS_P1;SDS_P2;PMS_P1;PMS_P2;Temp;Humidity;BMP_temperature;BMP_pressure;BME280_temperature;BME280_humidity;BME280_pressure;Samples;Min_cycle;Max_cycle;Signal;HPM_P1;HPM_P2
2023/04/05 00:02:04;;;;;;;10.40;10.10;;;20.40;44.30;;;;;;5052685;28;20581;-50
2023/04/05 00:04:33;;;;;;;10.30;10.00;;;20.30;44.20;;;;;;5052844;28;20459;-54
2023/04/05 00:07:07;;;;;;;10.10;9.80;;;20.30;44.20;;;;;;5051784;28;20571;-55
2023/04/05 00:09:34;;;;;;;10.30;10.00;;;20.30;44.20;;;;;;5052541;28;20448;-51
2023/04/05 00:12:01;;;;;;;11.70;11.23;;;20.30;44.30;;;;;;5052413;28;20507;-53
2023/04/05 00:14:27;;;;;;;10.10;9.77;;;20.30;44.30;;;;;;5052674;28;20974;-50
2023/04/05 00:16:55;;;;;;;10.27;9.97;;;20.30;44.30;;;;;;5052480;28;20476;-52
2023/04/05 00:19:22;;;;;;;11.13;10.73;;;20.30;44.30;;;;;;5052040;28;20502;-51
2023/04/05 00:21:49;;;;;;;10.47;10.17;;;20.20;44.30;;;;;;5051960;28;20831;-54
2023/04/05 00:24:17;;;;;;;10.27;10.07;;;20.30;44.90;;;;;;5052272;28;20871;-52
2023/04/05 00:26:44;;;;;;;10.90;10.60;;;20.20;44.30;;;;;;5051576;28;20572;-50
2023/04/05 00:29:11;;;;;;;10.77;10.47;;;20.20;44.30;;;;;;5052059;28;20509;-53
2023/04/05 00:31:38;;;;;;;10.70;10.40;;;20.20;44.30;;;;;;5051866;28;20558;-51
2023/04/05 00:34:07;;;;;;;11.03;10.70;;;20.20;44.30;;;;;;5052399;28;20815;-52
2023/04/05 00:36:35;;;;;;;10.50;10.20;;;20.20;44.90;;;;;;5051833;28;20459;-50
2023/04/05 00:39:01;;;;;;;11.10;10.70;;;20.20;44.30;;;;;;5051992;28;20444;-53
2023/04/05 00:41:30;;;;;;;10.50;10.20;;;20.20;44.40;;;;;;5051880;28;20553;-51
2023/04/05 00:43:58;;;;;;;11.07;10.67;;;20.20;44.40;;;;;;5051958;28;20495;-55
2023/04/05 00:46:26;;;;;;;11.07;10.67;;;20.20;44.40;;;;;;5051640;28;20451;-55
2023/04/05 00:48:53;;;;;;;10.97;10.67;;;20.20;44.40;;;;;;5051495;28;20448;-54
2023/04/05 00:51:22;;;;;;;12.27;11.77;;;20.20;44.40;;;;;;5051767;28;20500;-51
2023/04/05 00:53:52;;;;;;;13.00;12.40;;;20.20;44.40;;;;;;5051989;28;20445;-56
2023/04/05 00:56:20;;;;;;;11.93;11.43;;;20.20;44.50;;;;;;5051763;28;20444;-51
2023/04/05 00:58:50;;;;;;;12.60;12.00;;;20.20;44.40;;;;;;5051283;28;20444;-50
2023/04/05 01:01:19;;;;;;;13.87;13.10;;;20.20;44.40;;;;;;5051943;28;20459;-52
2023/04/05 01:03:52;;;;;;;13.10;12.50;;;20.10;44.40;;;;;;5051763;28;20478;-52
2023/04/05 01:06:33;;;;;;;13.20;12.50;;;20.10;44.40;;;;;;5050810;28;20963;-51
2023/04/05 01:09:05;;;;;;;13.13;12.53;;;20.10;44.40;;;;;;5051315;28;20472;-51
2023/04/05 01:11:35;;;;;;;11.37;10.87;;;20.10;44.40;;;;;;5051415;28;20456;-53
2023/04/05 01:14:03;;;;;;;14.47;13.80;;;20.10;44.40;;;;;;5051416;28;20447;-56
2023/04/05 01:16:30;;;;;;;13.37;12.73;;;20.10;44.40;;;;;;5051416;28;20472;-50
2023/04/05 01:18:57;;;;;;;13.40;12.80;;;20.10;44.50;;;;;;5051303;28;20471;-52
2023/04/05 01:21:57;;;;;;;12.60;11.90;;;20.00;44.30;;;;;;5051211;28;20990;-55
2023/04/05 01:24:37;;;;;;;13.33;12.67;;;20.00;44.40;;;;;;5051674;28;20832;-52
2023/04/05 01:27:09;;;;;;;13.87;13.07;;;20.00;44.40;;;;;;5035454;28;20554;-51
2023/04/05 01:29:51;;;;;;;13.03;12.43;;;20.00;44.40;;;;;;5051326;28;20850;-50
2023/04/05 01:32:55;;;;;;;13.20;12.50;;;20.00;44.40;;;;;;5051010;28;20475;-53
2023/04/05 01:35:27;;;;;;;13.33;12.73;;;20.00;44.50;;;;;;5045398;28;20460;-54
2023/04/05 01:38:00;;;;;;;12.43;11.83;;;20.00;44.50;;;;;;5056916;28;20502;-54
2023/04/05 01:40:28;;;;;;;13.27;12.57;;;20.00;44.50;;;;;;5056767;28;20436;-53
2023/04/05 01:42:54;;;;;;;13.33;12.63;;;20.00;44.50;;;;;;5056624;28;20499;-57
2023/04/05 01:45:23;;;;;;;13.03;12.33;;;20.00;44.60;;;;;;5040884;28;20472;-56
2023/04/05 01:47:50;;;;;;;14.10;13.40;;;20.00;44.60;;;;;;5056705;28;20504;-54
2023/04/05 01:50:17;;;;;;;14.10;13.40;;;20.00;44.50;;;;;;5056262;28;20455;-49
2023/04/05 01:52:44;;;;;;;12.87;12.37;;;20.00;44.60;;;;;;5050945;28;20917;-51
2023/04/05 01:55:10;;;;;;;14.87;13.87;;;20.00;44.50;;;;;;5050867;28;20864;-51
2023/04/05 01:57:38;;;;;;;13.17;12.47;;;20.00;44.60;;;;;;5051107;28;20444;-50
2023/04/05 02:00:06;;;;;;;16.00;15.20;;;20.00;44.60;;;;;;5050871;28;20448;-53
2023/04/05 02:02:34;;;;;;;14.70;14.00;;;20.00;44.60;;;;;;5050939;28;20503;-53
2023/04/05 02:05:01;;;;;;;13.63;12.70;;;20.00;44.60;;;;;;5050960;28;20487;-52
2023/04/05 02:07:28;;;;;;;13.43;12.83;;;20.00;44.60;;;;;;5050931;28;20563;-50
2023/04/05 02:09:55;;;;;;;12.97;12.27;;;20.00;44.60;;;;;;5050948;28;20479;-49
2023/04/05 02:12:22;;;;;;;12.10;11.50;;;20.00;44.60;;;;;;5050784;28;20503;-52
2023/04/05 02:14:50;;;;;;;12.87;12.27;;;20.00;44.60;;;;;;5050869;28;20450;-50
2023/04/05 02:17:17;;;;;;;12.43;11.67;;;20.00;44.70;;;;;;5051571;28;20475;-50
2023/04/05 02:19:46;;;;;;;13.50;12.87;;;20.00;44.60;;;;;;5054083;28;20459;-52
2023/04/05 02:22:13;;;;;;;12.33;11.83;;;19.90;44.40;;;;;;5054695;28;20801;-50
2023/04/05 02:24:40;;;;;;;12.60;12.10;;;19.90;44.50;;;;;;5054544;28;20966;-50
2023/04/05 02:27:07;;;;;;;12.40;11.80;;;19.90;44.40;;;;;;5054285;28;20478;-50
2023/04/05 02:29:34;;;;;;;11.83;11.33;;;19.90;44.40;;;;;;5054218;28;20452;-51
2023/04/05 02:32:01;;;;;;;13.13;12.43;;;19.90;44.40;;;;;;5054158;28;20486;-52
2023/04/05 02:34:28;;;;;;;13.10;12.50;;;19.90;44.40;;;;;;5054635;28;20487;-52
2023/04/05 02:36:57;;;;;;;12.70;12.10;;;19.90;44.40;;;;;;5053978;28;21018;-51
2023/04/05 02:39:25;;;;;;;12.70;12.00;;;19.90;44.40;;;;;;5054198;28;20444;-51
2023/04/05 02:41:52;;;;;;;12.70;12.10;;;19.90;44.40;;;;;;5054211;28;20550;-51
2023/04/05 02:44:19;;;;;;;12.03;11.43;;;19.80;44.30;;;;;;5054491;28;20471;-50
2023/04/05 02:46:45;;;;;;;12.50;12.00;;;19.90;44.40;;;;;;5053979;28;20487;-53
2023/04/05 02:49:12;;;;;;;13.10;12.40;;;19.90;44.40;;;;;;5053489;28;20567;-52
2023/04/05 02:51:39;;;;;;;12.73;12.13;;;19.80;44.40;;;;;;5054062;28;20495;-50
2023/04/05 02:54:08;;;;;;;12.10;11.60;;;19.80;44.30;;;;;;5054398;28;20451;-52
2023/04/05 02:56:35;;;;;;;11.83;11.23;;;19.80;44.40;;;;;;5053767;28;20476;-51
2023/04/05 02:59:02;;;;;;;12.07;11.47;;;19.80;44.40;;;;;;5054101;28;20455;-49
2023/04/05 03:01:31;;;;;;;12.10;11.40;;;19.80;44.50;;;;;;5053496;28;20468;-50
2023/04/05 03:03:58;;;;;;;12.43;11.83;;;19.80;44.50;;;;;;5054095;28;20463;-50
2023/04/05 03:06:25;;;;;;;12.40;11.60;;;19.80;44.50;;;;;;5053812;28;20531;-54
2023/04/05 03:08:52;;;;;;;11.70;11.20;;;19.80;44.60;;;;;;5053671;28;20983;-50
2023/04/05 03:11:20;;;;;;;11.50;11.00;;;19.80;44.60;;;;;;5053518;28;20448;-51
2023/04/05 03:13:47;;;;;;;12.17;11.57;;;19.80;44.60;;;;;;5057897;28;20531;-52
2023/04/05 03:16:14;;;;;;;11.57;11.07;;;19.80;44.60;;;;;;5053832;28;20494;-52
2023/04/05 03:18:41;;;;;;;11.07;10.57;;;19.80;44.70;;;;;;5053337;28;20940;-51
2023/04/05 03:21:11;;;;;;;11.33;10.93;;;19.80;44.60;;;;;;5053319;28;20876;-52
2023/04/05 03:23:38;;;;;;;11.40;11.00;;;19.80;44.60;;;;;;5053780;28;20449;-50
2023/04/05 03:26:05;;;;;;;12.20;11.60;;;19.80;44.70;;;;;;5053410;28;20478;-50
2023/04/05 03:28:33;;;;;;;12.40;11.90;;;19.80;44.60;;;;;;5052642;28;20566;-50
2023/04/05 03:31:00;;;;;;;11.03;10.53;;;19.80;44.60;;;;;;5052723;28;20488;-53
2023/04/05 03:33:27;;;;;;;12.20;11.60;;;19.80;44.70;;;;;;5053661;28;20479;-51
2023/04/05 03:35:54;;;;;;;11.40;10.93;;;19.80;44.70;;;;;;5053226;28;20472;-51
2023/04/05 03:38:21;;;;;;;11.53;11.03;;;19.80;44.70;;;;;;5052824;28;20444;-51
2023/04/05 03:40:48;;;;;;;11.50;11.10;;;19.80;44.70;;;;;;5053083;28;20476;-52
2023/04/05 03:43:15;;;;;;;10.77;10.33;;;19.80;44.70;;;;;;5053172;28;20480;-51
2023/04/05 03:45:43;;;;;;;11.13;10.73;;;19.80;45.30;;;;;;5053002;28;20825;-53
2023/04/05 03:48:10;;;;;;;11.77;11.10;;;19.80;44.70;;;;;;5052414;28;20566;-50
2023/04/05 03:50:37;;;;;;;11.50;11.00;;;19.70;44.60;;;;;;5053006;28;20472;-49
2023/04/05 03:53:04;;;;;;;11.03;10.63;;;19.70;44.60;;;;;;5052799;28;20508;-51
2023/04/05 03:55:32;;;;;;;11.83;11.23;;;19.80;44.70;;;;;;5053086;28;20483;-50
2023/04/05 03:57:58;;;;;;;11.20;10.60;;;19.80;44.70;;;;;;5052304;28;20528;-51
2023/04/05 04:00:25;;;;;;;11.77;11.27;;;19.70;44.60;;;;;;5052255;28;20476;-49
2023/04/05 04:02:54;;;;;;;9.80;9.50;;;19.70;44.60;;;;;;5052720;28;20511;-52
2023/04/05 04:05:21;;;;;;;11.80;11.30;;;19.70;44.90;;;;;;5052707;28;20535;-52
2023/04/05 04:07:48;;;;;;;11.37;10.93;;;19.70;44.60;;;;;;5052142;28;20472;-51
2023/04/05 04:10:17;;;;;;;12.80;12.33;;;19.70;44.60;;;;;;5052600;28;20958;-53
2023/04/05 04:12:45;;;;;;;11.33;10.80;;;19.70;44.60;;;;;;5052656;28;20471;-50
2023/04/05 04:15:12;;;;;;;11.10;10.80;;;19.70;44.60;;;;;;5052680;28;20448;-51
2023/04/05 04:17:39;;;;;;;12.13;11.63;;;19.70;44.60;;;;;;5052490;28;20448;-50
2023/04/05 04:20:09;;;;;;;11.73;11.30;;;19.60;44.50;;;;;;5052503;28;20487;-52
2023/04/05 04:22:39;;;;;;;11.60;11.20;;;19.70;44.60;;;;;;5052145;28;20572;-49
2023/04/05 04:25:08;;;;;;;11.53;11.13;;;19.60;44.60;;;;;;5051995;28;20970;-52
2023/04/05 04:27:38;;;;;;;11.30;10.93;;;19.70;44.60;;;;;;5052115;28;20809;-53
2023/04/05 04:30:09;;;;;;;13.00;12.30;;;19.60;44.60;;;;;;5052083;28;20819;-50
2023/04/05 04:32:53;;;;;;;11.63;11.07;;;19.60;44.70;;;;;;5051961;28;20479;-50
2023/04/05 04:35:24;;;;;;;11.30;10.80;;;19.60;44.70;;;;;;5038172;28;20456;-52
2023/04/05 04:37:53;;;;;;;11.40;11.00;;;19.70;44.90;;;;;;5051960;28;20978;-52
2023/04/05 04:40:21;;;;;;;11.57;11.27;;;19.60;44.80;;;;;;5052057;28;20444;-53
2023/04/05 04:42:49;;;;;;;10.50;10.20;;;19.60;44.80;;;;;;5051948;28;20514;-51
2023/04/05 04:45:18;;;;;;;11.77;11.33;;;19.60;44.90;;;;;;5051530;28;20498;-51
2023/04/05 04:47:46;;;;;;;12.10;11.60;;;19.70;45.00;;;;;;5051833;28;20483;-54
2023/04/05 04:50:14;;;;;;;13.97;13.03;;;19.70;45.10;;;;;;5051618;28;20464;-59
2023/04/05 04:52:43;;;;;;;12.17;11.17;;;19.70;45.40;;;;;;5051018;28;20463;-59
2023/04/05 04:55:12;;;;;;;14.47;12.60;;;19.70;46.80;;;;;;5051948;28;20484;-54
2023/04/05 04:57:40;;;;;;;11.43;10.43;;;19.70;47.20;;;;;;5051852;28;20444;-52
2023/04/05 05:00:12;;;;;;;12.00;10.90;;;19.70;47.70;;;;;;5051916;28;20470;-54
2023/04/05 05:02:39;;;;;;;14.47;13.13;;;19.70;47.80;;;;;;5051902;28;20521;-51
2023/04/05 05:05:07;;;;;;;12.07;11.30;;;19.80;47.90;;;;;;5051799;28;20444;-55
2023/04/05 05:07:34;;;;;;;12.47;11.73;;;19.80;47.80;;;;;;5051665;28;20830;-56
2023/04/05 05:10:03;;;;;;;11.77;10.90;;;19.80;47.60;;;;;;5051843;28;20822;-54
2023/04/05 05:12:31;;;;;;;11.30;10.60;;;19.80;47.50;;;;;;5055096;28;20460;-53
2023/04/05 05:14:58;;;;;;;12.17;11.50;;;19.80;47.40;;;;;;5054428;28;20448;-52
2023/04/05 05:17:25;;;;;;;12.03;11.13;;;19.80;47.20;;;;;;5051555;28;20480;-53
2023/04/05 05:19:52;;;;;;;11.17;10.60;;;19.80;47.10;;;;;;5051679;28;20468;-54
2023/04/05 05:22:20;;;;;;;11.33;10.80;;;19.80;47.00;;;;;;5051768;28;20526;-53
2023/04/05 05:24:47;;;;;;;10.67;10.07;;;19.80;47.00;;;;;;5051648;28;20488;-52
2023/04/05 05:27:16;;;;;;;12.43;11.57;;;19.80;46.80;;;;;;5051539;28;20451;-55
2023/04/05 05:29:43;;;;;;;11.77;10.60;;;19.80;46.70;;;;;;5051444;28;20570;-56
2023/04/05 05:32:14;;;;;;;12.20;11.40;;;19.80;46.60;;;;;;5098903;22;20861;-56
2023/04/05 05:34:43;;;;;;;11.03;10.20;;;19.80;46.60;;;;;;5063409;28;20518;-57
2023/04/05 05:37:10;;;;;;;11.20;10.60;;;19.80;46.50;;;;;;5071325;28;20565;-52
2023/04/05 05:39:37;;;;;;;11.63;11.03;;;19.70;46.40;;;;;;5071422;28;20493;-53
2023/04/05 05:42:05;;;;;;;11.90;11.00;;;19.70;46.80;;;;;;5071368;28;20551;-53
2023/04/05 05:44:34;;;;;;;13.03;11.77;;;19.70;46.30;;;;;;5071491;28;20526;-53
2023/04/05 05:47:01;;;;;;;10.97;10.37;;;19.70;46.20;;;;;;5071226;28;20577;-55
2023/04/05 05:49:28;;;;;;;11.87;11.20;;;19.70;46.20;;;;;;5071274;28;20570;-54
2023/04/05 05:51:55;;;;;;;11.73;10.93;;;19.70;46.10;;;;;;5071245;28;20893;-55
2023/04/05 05:54:22;;;;;;;11.40;10.60;;;19.70;46.10;;;;;;5075325;28;20891;-58
2023/04/05 05:56:49;;;;;;;11.20;10.63;;;19.70;46.10;;;;;;5075174;28;20479;-56
2023/04/05 05:59:16;;;;;;;11.30;10.80;;;19.70;46.20;;;;;;5075173;28;20451;-52
2023/04/05 06:01:45;;;;;;;11.40;10.60;;;19.70;46.20;;;;;;5075287;28;20482;-52
2023/04/05 06:04:12;;;;;;;10.87;9.90;;;19.70;46.20;;;;;;5075287;28;20848;-55
2023/04/05 06:06:41;;;;;;;12.50;11.83;;;19.70;46.20;;;;;;5074992;28;20474;-56
2023/04/05 06:09:08;;;;;;;11.83;11.23;;;19.70;46.20;;;;;;5075028;28;20483;-53
2023/04/05 06:11:35;;;;;;;14.77;14.07;;;19.70;46.20;;;;;;5075117;28;20576;-56
2023/04/05 06:14:02;;;;;;;10.80;10.30;;;19.70;46.20;;;;;;5074958;28;20447;-54
2023/04/05 06:16:29;;;;;;;11.80;11.20;;;19.80;46.30;;;;;;5074966;28;20537;-56
2023/04/05 06:18:58;;;;;;;11.50;10.90;;;19.80;46.20;;;;;;5074840;28;20995;-56
2023/04/05 06:21:25;;;;;;;10.93;10.50;;;19.80;46.20;;;;;;5074699;28;20482;-55
2023/04/05 06:23:51;;;;;;;11.73;10.97;;;19.80;46.10;;;;;;5074792;28;20478;-56
2023/04/05 06:26:19;;;;;;;11.90;11.40;;;19.80;46.10;;;;;;5074774;28;21027;-53
2023/04/05 06:28:47;;;;;;;11.50;10.90;;;19.80;46.10;;;;;;5074386;28;20556;-55
2023/04/05 06:31:16;;;;;;;10.60;10.20;;;19.80;46.00;;;;;;5074596;28;20453;-53
2023/04/05 06:33:43;;;;;;;11.73;10.90;;;19.80;46.00;;;;;;5074567;28;20981;-56
2023/04/05 06:36:11;;;;;;;11.80;11.30;;;19.80;45.90;;;;;;5074613;28;20474;-52
2023/04/05 06:38:38;;;;;;;11.33;10.63;;;19.90;45.90;;;;;;5074302;28;20478;-58
2023/04/05 06:41:05;;;;;;;10.80;10.40;;;19.80;45.90;;;;;;5074549;28;20968;-55
2023/04/05 06:43:32;;;;;;;11.50;10.90;;;19.80;45.80;;;;;;5074372;28;20551;-52
2023/04/05 06:45:59;;;;;;;11.87;11.27;;;19.80;45.80;;;;;;5074357;28;20521;-55
2023/04/05 06:48:28;;;;;;;10.93;10.43;;;19.80;45.70;;;;;;5074014;28;20500;-54
2023/04/05 06:50:58;;;;;;;10.83;10.40;;;19.80;45.70;;;;;;5074218;28;20450;-56
2023/04/05 06:53:27;;;;;;;11.40;11.00;;;19.80;45.70;;;;;;5074137;28;20809;-57
2023/04/05 06:55:55;;;;;;;12.10;11.50;;;19.80;45.70;;;;;;5074194;28;20534;-57
2023/04/05 06:58:23;;;;;;;10.50;10.20;;;19.80;45.70;;;;;;5073923;28;20449;-54
2023/04/05 07:00:50;;;;;;;10.37;10.07;;;19.80;45.60;;;;;;5074118;28;20458;-56
2023/04/05 07:03:17;;;;;;;11.00;10.60;;;19.80;45.60;;;;;;5073805;28;20546;-56
2023/04/05 07:05:51;;;;;;;11.30;10.80;;;19.80;45.60;;;;;;5073058;28;20474;-58
2023/04/05 07:08:19;;;;;;;10.57;10.27;;;19.80;45.60;;;;;;5073867;28;20435;-55
2023/04/05 07:10:48;;;;;;;11.30;10.90;;;19.80;45.60;;;;;;5073879;28;20475;-55
2023/04/05 07:13:15;;;;;;;11.70;11.40;;;19.70;45.50;;;;;;5073886;28;20490;-58
2023/04/05 07:15:42;;;;;;;11.10;10.70;;;19.70;45.50;;;;;;5073919;28;20505;-57
2023/04/05 07:18:09;;;;;;;10.97;10.37;;;19.70;45.50;;;;;;5073550;28;20471;-56
2023/04/05 07:20:36;;;;;;;10.97;10.57;;;19.70;45.50;;;;;;5073832;28;20539;-53
2023/04/05 07:23:04;;;;;;;10.40;10.00;;;19.70;45.50;;;;;;5073631;28;20909;-58
2023/04/05 07:25:31;;;;;;;10.60;10.30;;;19.70;45.50;;;;;;5073699;28;21119;-54
2023/04/05 07:28:00;;;;;;;10.77;10.17;;;19.70;45.50;;;;;;5073482;28;20526;-53
2023/04/05 07:30:27;;;;;;;11.20;10.80;;;19.70;45.50;;;;;;5073592;28;20479;-54
2023/04/05 07:32:54;;;;;;;11.00;10.60;;;19.70;45.50;;;;;;5073420;28;20510;-54
2023/04/05 07:35:21;;;;;;;10.57;10.27;;;19.60;45.50;;;;;;5073550;28;20535;-55
2023/04/05 07:37:48;;;;;;;10.20;9.70;;;19.60;45.60;;;;;;5073374;28;20450;-55
2023/04/05 07:40:15;;;;;;;10.87;10.50;;;19.60;45.60;;;;;;5073474;28;20474;-52
2023/04/05 07:42:42;;;;;;;9.77;9.47;;;19.70;45.70;;;;;;5073335;28;21027;-56
2023/04/05 07:45:11;;;;;;;10.07;9.67;;;19.70;45.80;;;;;;5073339;28;20500;-56
2023/04/05 07:47:38;;;;;;;10.40;10.10;;;19.70;45.80;;;;;;5073071;28;20486;-55
2023/04/05 07:50:08;;;;;;;10.67;10.30;;;19.70;45.80;;;;;;5073165;28;21039;-53
2023/04/05 07:52:35;;;;;;;10.80;10.50;;;19.70;45.80;;;;;;5073167;28;21001;-55
2023/04/05 07:55:02;;;;;;;10.00;9.60;;;19.70;45.80;;;;;;5073148;28;20471;-56
2023/04/05 07:57:29;;;;;;;10.37;10.00;;;19.70;45.80;;;;;;5072856;28;20444;-56
2023/04/05 07:59:56;;;;;;;10.20;9.80;;;19.70;45.80;;;;;;5073162;28;20447;-57
2023/04/05 08:02:24;;;;;;;9.43;9.13;;;19.80;45.80;;;;;;5072850;28;20495;-58
2023/04/05 08:04:51;;;;;;;10.27;9.83;;;19.80;45.80;;;;;;5072980;28;20518;-57
2023/04/05 08:07:18;;;;;;;9.97;9.67;;;19.80;45.80;;;;;;5072812;28;20482;-54
2023/04/05 08:09:45;;;;;;;9.50;9.20;;;19.80;45.80;;;;;;5072504;28;20569;-57
2023/04/05 08:12:12;;;;;;;10.30;9.90;;;19.80;45.80;;;;;;5072680;28;20548;-58
2023/04/05 08:14:39;;;;;;;9.77;9.50;;;19.80;45.80;;;;;;5072833;28;20439;-56
2023/04/05 08:17:06;;;;;;;10.17;9.80;;;19.80;45.70;;;;;;5072083;28;20447;-56
2023/04/05 08:19:34;;;;;;;9.87;9.67;;;19.80;45.60;;;;;;5072538;28;20482;-57
2023/04/05 08:22:01;;;;;;;10.80;10.50;;;19.80;45.60;;;;;;5072621;28;20498;-54
2023/04/05 08:24:28;;;;;;;12.13;11.53;;;19.80;45.60;;;;;;5072474;28;20526;-54
2023/04/05 08:26:55;;;;;;;11.83;11.23;;;19.80;45.60;;;;;;5072213;28;20481;-54
2023/04/05 08:29:21;;;;;;;11.07;10.77;;;19.80;45.60;;;;;;5072417;28;20513;-52
2023/04/05 08:31:48;;;;;;;11.80;11.30;;;19.80;45.50;;;;;;5072144;28;20542;-54
2023/04/05 08:34:15;;;;;;;11.50;11.00;;;19.80;45.50;;;;;;5072322;28;20475;-55
2023/04/05 08:36:43;;;;;;;11.20;10.80;;;19.80;45.50;;;;;;5072107;28;20512;-57
2023/04/05 08:39:10;;;;;;;11.33;10.93;;;19.80;45.50;;;;;;5072114;28;20482;-53
2023/04/05 08:41:46;;;;;;;11.10;10.80;;;19.80;45.40;;;;;;5072092;28;20451;-59
2023/04/05 08:44:13;;;;;;;10.40;10.10;;;19.80;45.40;;;;;;5072205;28;20533;-53
2023/04/05 08:46:43;;;;;;;10.73;10.43;;;19.80;45.40;;;;;;5072047;28;20534;-53
2023/04/05 08:49:11;;;;;;;11.83;11.07;;;19.80;45.40;;;;;;5071973;28;20475;-56
2023/04/05 08:51:39;;;;;;;10.50;10.20;;;19.80;45.40;;;;;;5072078;28;20817;-57
2023/04/05 08:54:08;;;;;;;10.90;10.60;;;19.80;45.40;;;;;;5071989;28;20538;-57
2023/04/05 08:56:36;;;;;;;10.50;10.20;;;19.70;45.30;;;;;;5071803;28;20451;-56
2023/04/05 08:59:05;;;;;;;10.53;10.23;;;19.70;45.20;;;;;;5071963;28;20479;-55
2023/04/05 09:01:33;;;;;;;10.70;10.37;;;19.70;45.20;;;;;;5071807;28;20482;-56
2023/04/05 09:04:05;;;;;;;11.03;10.63;;;19.70;45.20;;;;;;5071867;28;20534;-55
2023/04/05 09:06:32;;;;;;;11.33;10.93;;;19.70;45.20;;;;;;5071836;28;20478;-57
2023/04/05 09:08:59;;;;;;;10.83;10.50;;;19.70;45.20;;;;;;5071666;28;20479;-57
2023/04/05 09:11:27;;;;;;;10.50;10.30;;;19.70;45.20;;;;;;5071501;28;20909;-57
2023/04/05 09:13:54;;;;;;;10.97;10.67;;;19.70;45.20;;;;;;5071875;28;20499;-56
2023/04/05 09:16:22;;;;;;;11.23;10.93;;;19.70;45.20;;;;;;5071690;28;20546;-57
2023/04/05 09:18:49;;;;;;;10.87;10.57;;;19.70;45.20;;;;;;5071519;28;20530;-55
2023/04/05 09:21:16;;;;;;;11.73;11.40;;;19.70;45.20;;;;;;5071627;28;20475;-56
2023/04/05 09:23:52;;;;;;;11.07;10.77;;;19.70;45.30;;;;;;5071487;28;20459;-55
2023/04/05 09:26:21;;;;;;;11.47;11.07;;;19.60;45.20;;;;;;5071597;28;20451;-52
2023/04/05 09:28:49;;;;;;;11.53;11.20;;;19.70;45.30;;;;;;5070881;28;20455;-56
2023/04/05 09:31:31;;;;;;;11.13;10.83;;;19.70;45.40;;;;;;5071390;28;20479;-55
2023/04/05 09:33:59;;;;;;;10.97;10.63;;;19.70;45.40;;;;;;5071593;28;20527;-58
2023/04/05 09:36:27;;;;;;;11.03;10.73;;;19.70;45.40;;;;;;5071451;28;20443;-57
2023/04/05 09:39:03;;;;;;;10.80;10.50;;;19.70;45.50;;;;;;5071235;28;20447;-54
2023/04/05 09:41:30;;;;;;;11.10;10.80;;;19.70;45.50;;;;;;5071409;28;20478;-56
2023/04/05 09:43:59;;;;;;;11.07;10.77;;;19.80;45.60;;;;;;5071462;28;20439;-56
2023/04/05 09:46:31;;;;;;;11.03;10.63;;;19.80;45.60;;;;;;5071310;28;21007;-54
2023/04/05 09:48:58;;;;;;;10.90;10.60;;;19.80;45.60;;;;;;5071282;28;20954;-54
2023/04/05 09:51:32;;;;;;;11.40;11.10;;;19.80;45.50;;;;;;5071287;28;20510;-56
2023/04/05 09:54:01;;;;;;;11.10;10.73;;;19.80;45.50;;;;;;5071338;28;20479;-58
2023/04/05 09:56:31;;;;;;;11.10;10.60;;;19.80;45.50;;;;;;5071256;28;20443;-57
2023/04/05 09:59:08;;;;;;;11.63;11.23;;;19.80;45.50;;;;;;5071178;28;20501;-56
2023/04/05 10:01:35;;;;;;;10.80;10.50;;;19.80;45.50;;;;;;5071155;28;20470;-57
2023/04/05 10:04:02;;;;;;;10.80;10.50;;;19.80;45.50;;;;;;5071298;28;20453;-56
2023/04/05 10:06:36;;;;;;;10.93;10.70;;;19.80;45.50;;;;;;5071154;28;20543;-57
2023/04/05 10:09:04;;;;;;;11.00;10.60;;;19.80;45.50;;;;;;5071085;28;20443;-58
2023/04/05 10:11:33;;;;;;;11.07;10.77;;;19.80;45.50;;;;;;5070967;28;20537;-57
2023/04/05 10:14:03;;;;;;;11.07;10.77;;;19.90;45.50;;;;;;5071152;28;20451;-58
2023/04/05 10:16:34;;;;;;;10.70;10.40;;;19.90;45.40;;;;;;5071094;28;20494;-56
2023/04/05 10:19:04;;;;;;;10.77;10.57;;;19.80;45.30;;;;;;5071066;28;20454;-53
2023/04/05 10:21:35;;;;;;;11.00;10.70;;;19.90;45.40;;;;;;5070819;28;20440;-58
2023/04/05 10:24:12;;;;;;;10.90;10.60;;;19.80;45.30;;;;;;5071078;28;20485;-57
2023/04/05 10:26:45;;;;;;;10.87;10.57;;;19.90;45.30;;;;;;5070999;28;20477;-58
2023/04/05 10:29:22;;;;;;;11.10;10.80;;;19.80;45.20;;;;;;5070863;28;20448;-56
2023/04/05 10:31:53;;;;;;;11.10;10.80;;;19.90;45.30;;;;;;5070740;28;20545;-57
2023/04/05 10:34:30;;;;;;;11.20;10.90;;;19.90;45.30;;;;;;5071029;28;20479;-59
2023/04/05 10:37:00;;;;;;;11.20;10.90;;;19.80;45.20;;;;;;5070714;28;20478;-57
2023/04/05 10:39:29;;;;;;;10.83;10.53;;;19.90;45.30;;;;;;5073007;28;20443;-59
2023/04/05 10:42:01;;;;;;;11.23;10.90;;;19.90;45.30;;;;;;5074378;28;20529;-58
2023/04/05 10:44:32;;;;;;;11.70;11.30;;;19.80;45.20;;;;;;5074470;28;20454;-57
2023/04/05 10:47:00;;;;;;;10.97;10.77;;;19.80;45.20;;;;;;5074317;28;20439;-56
2023/04/05 10:49:34;;;;;;;11.03;10.83;;;19.80;45.20;;;;;;5074291;28;20444;-57
2023/04/05 10:52:02;;;;;;;11.27;10.97;;;19.80;45.20;;;;;;5074220;28;20489;-57
2023/04/05 10:54:32;;;;;;;11.43;11.10;;;19.80;45.20;;;;;;5074385;28;20881;-57
2023/04/05 10:57:00;;;;;;;11.60;11.20;;;19.80;45.20;;;;;;5074192;28;20470;-55
2023/04/05 10:59:29;;;;;;;11.23;10.93;;;19.80;45.20;;;;;;5074082;28;20501;-56
2023/04/05 11:01:56;;;;;;;11.10;10.80;;;19.80;45.10;;;;;;5074201;28;20506;-57
2023/04/05 11:04:23;;;;;;;11.83;11.43;;;19.80;45.10;;;;;;5074128;28;20482;-57
2023/04/05 11:07:11;;;;;;;11.33;11.03;;;19.80;45.10;;;;;;5073849;28;20485;-54
2023/04/05 11:09:40;;;;;;;10.70;10.40;;;19.80;45.10;;;;;;5074177;28;20526;-55
2023/04/05 11:12:07;;;;;;;11.33;10.83;;;19.80;45.10;;;;;;5073843;28;20514;-56
2023/04/05 11:14:38;;;;;;;11.60;11.27;;;19.80;45.20;;;;;;5073899;28;20499;-57
2023/04/05 11:17:23;;;;;;;11.30;10.90;;;19.80;45.20;;;;;;5073872;28;20888;-55
2023/04/05 11:19:52;;;;;;;10.90;10.60;;;19.80;45.30;;;;;;5073798;28;20479;-57
2023/04/05 11:22:26;;;;;;;10.70;10.50;;;19.90;45.40;;;;;;5073744;28;20475;-55
2023/04/05 11:24:56;;;;;;;10.90;10.60;;;19.90;45.40;;;;;;5073907;28;20443;-54
2023/04/05 11:27:27;;;;;;;10.37;10.17;;;19.80;45.40;;;;;;5073531;28;20494;-57
2023/04/05 11:29:56;;;;;;;11.13;10.77;;;19.90;45.50;;;;;;5073558;28;20534;-59
2023/04/05 11:32:23;;;;;;;10.93;10.63;;;19.90;45.50;;;;;;5074420;28;20510;-59
2023/04/05 11:35:00;;;;;;;11.03;10.73;;;19.90;45.50;;;;;;5075366;28;20504;-58
2023/04/05 11:37:52;;;;;;;10.70;10.50;;;19.90;45.50;;;;;;5075034;28;20482;-58
2023/04/05 11:40:28;;;;;;;11.20;10.80;;;20.00;45.50;;;;;;5075205;28;20711;-60
2023/04/05 11:43:04;;;;;;;10.97;10.67;;;20.00;45.50;;;;;;5075545;28;20501;-60
2023/04/05 11:45:34;;;;;;;9.50;9.30;;;20.00;45.50;;;;;;5075231;28;20473;-59
2023/04/05 11:48:04;;;;;;;8.70;8.50;;;20.00;45.50;;;;;;5074848;28;20448;-59
2023/04/05 11:50:31;;;;;;;9.40;9.10;;;20.00;45.40;;;;;;5074620;28;20510;-59
2023/04/05 11:53:08;;;;;;;8.63;8.43;;;20.00;45.40;;;;;;5074876;28;20493;-57
2023/04/05 11:55:35;;;;;;;9.73;9.53;;;20.00;45.40;;;;;;5074643;28;20443;-57
2023/04/05 11:58:02;;;;;;;8.73;8.53;;;20.00;45.40;;;;;;5075059;28;20486;-59
2023/04/05 12:00:29;;;;;;;8.40;8.20;;;20.00;45.30;;;;;;5075091;28;20487;-59
2023/04/05 12:02:57;;;;;;;8.80;8.60;;;20.00;45.30;;;;;;5074714;28;20494;-57
2023/04/05 12:05:24;;;;;;;8.80;8.60;;;20.00;45.30;;;;;;5074352;28;20443;-59
2023/04/05 12:07:53;;;;;;;8.27;8.07;;;20.10;45.40;;;;;;5074168;28;20493;-59
2023/04/05 12:10:20;;;;;;;8.17;7.97;;;20.10;45.30;;;;;;5074455;28;20478;-59
2023/04/05 12:12:47;;;;;;;8.93;8.73;;;20.10;45.30;;;;;;5074079;28;20503;-58
2023/04/05 12:15:17;;;;;;;8.80;8.50;;;20.10;45.30;;;;;;5074509;28;20961;-58
2023/04/05 12:17:49;;;;;;;8.73;8.53;;;20.10;45.30;;;;;;5074129;28;20958;-60
2023/04/05 12:20:20;;;;;;;8.37;8.17;;;20.10;45.30;;;;;;5074188;28;20451;-59
2023/04/05 12:22:48;;;;;;;8.27;8.07;;;20.10;45.30;;;;;;5075242;28;20467;-56
2023/04/05 12:25:16;;;;;;;8.83;8.63;;;20.10;45.20;;;;;;5074493;28;20447;-59
2023/04/05 12:27:44;;;;;;;8.50;8.30;;;20.20;45.30;;;;;;5074057;28;20479;-59
2023/04/05 12:30:14;;;;;;;8.90;8.70;;;20.10;45.20;;;;;;5074599;28;20857;-58
2023/04/05 12:32:42;;;;;;;8.93;8.73;;;20.20;45.30;;;;;;5074575;28;20471;-58
2023/04/05 12:35:13;;;;;;;8.90;8.60;;;20.20;45.30;;;;;;5074372;28;20478;-59
2023/04/05 12:37:42;;;;;;;8.87;8.67;;;20.20;45.20;;;;;;5074565;28;20475;-58